createdAt,value
2018-11-29T00:00:00.581Z,0.00
2018-11-29T00:01:00.589Z,0.00
2018-11-29T00:02:00.563Z,0.00
2018-11-29T00:03:00.558Z,0.00
2018-11-29T00:04:00.540Z,0.00
2018-11-29T00:05:00.523Z,0.00
2018-11-29T00:06:00.536Z,0.00
2018-11-29T00:07:00.503Z,0.00
2018-11-29T00:08:00.491Z,0.00
2018-11-29T00:09:00.478Z,0.00
2018-11-29T00:10:00.468Z,0.00
2018-11-29T00:11:00.474Z,0.00
2018-11-29T00:12:00.443Z,0.00
2018-11-29T00:13:00.434Z,0.00
2018-11-29T00:14:00.423Z,0.00
2018-11-29T00:15:00.412Z,0.00
2018-11-29T00:16:00.420Z,0.00
2018-11-29T00:17:00.391Z,0.00
2018-11-29T00:18:00.377Z,0.00
2018-11-29T00:19:00.367Z,0.00
2018-11-29T00:20:00.356Z,0.00
2018-11-29T00:21:00.361Z,0.00
2018-11-29T00:22:00.333Z,0.00
2018-11-29T00:23:00.323Z,0.00
2018-11-29T00:24:00.309Z,0.00
2018-11-29T00:25:00.298Z,0.00
2018-11-29T00:26:00.308Z,0.00
2018-11-29T00:27:00.276Z,0.00
2018-11-29T00:28:00.263Z,0.00
2018-11-29T00:29:00.255Z,0.00
2018-11-29T00:30:00.241Z,0.00
2018-11-29T00:31:00.250Z,0.00
2018-11-29T00:32:00.296Z,0.00
2018-11-29T00:33:00.207Z,0.00
2018-11-29T00:34:00.201Z,0.00
2018-11-29T00:35:00.184Z,0.00
2018-11-29T00:36:00.191Z,0.00
2018-11-29T00:37:00.162Z,0.00
2018-11-29T00:38:00.152Z,0.00
2018-11-29T00:39:00.142Z,0.00
2018-11-29T00:40:00.134Z,0.00
2018-11-29T00:41:00.194Z,0.00
2018-11-29T00:42:00.105Z,0.00
2018-11-29T00:43:00.095Z,0.00
2018-11-29T00:44:00.086Z,0.00
2018-11-29T00:45:00.069Z,0.00
2018-11-29T00:46:00.077Z,0.00
2018-11-29T00:47:00.062Z,0.00
2018-11-29T00:48:00.034Z,0.00
2018-11-29T00:49:00.022Z,0.00
2018-11-29T00:50:00.013Z,0.00
2018-11-29T00:51:00.021Z,0.00
2018-11-29T00:52:00.002Z,0.00
2018-11-29T00:52:59.975Z,0.00
2018-11-29T00:53:59.969Z,0.00
2018-11-29T00:54:59.955Z,0.00
2018-11-29T00:55:59.966Z,0.00
2018-11-29T00:56:59.931Z,0.00
2018-11-29T00:57:59.925Z,0.00
2018-11-29T00:58:59.915Z,0.00
2018-11-29T00:59:59.898Z,0.00
2018-11-29T01:00:59.904Z,0.00
2018-11-29T01:01:59.872Z,0.00
2018-11-29T01:02:59.863Z,0.00
2018-11-29T01:03:59.850Z,0.00
2018-11-29T01:04:59.839Z,0.00
2018-11-29T01:05:59.847Z,0.00
2018-11-29T01:06:59.820Z,0.00
2018-11-29T01:07:59.806Z,0.00
2018-11-29T01:08:59.795Z,0.00
2018-11-29T01:09:59.783Z,0.00
2018-11-29T01:10:59.793Z,0.00
2018-11-29T01:11:59.760Z,0.00
2018-11-29T01:12:59.750Z,0.00
2018-11-29T01:13:59.739Z,0.00
2018-11-29T01:14:59.730Z,0.00
2018-11-29T01:15:59.716Z,0.00
2018-11-29T01:16:59.723Z,0.00
2018-11-29T01:17:59.694Z,0.00
2018-11-29T01:18:59.680Z,0.00
2018-11-29T01:19:59.676Z,0.00
2018-11-29T01:20:59.657Z,0.00
2018-11-29T01:21:59.663Z,0.00
2018-11-29T01:22:59.634Z,0.00
2018-11-29T01:23:59.622Z,0.00
2018-11-29T01:24:59.610Z,0.00
2018-11-29T01:25:59.600Z,0.00
2018-11-29T01:26:59.606Z,0.00
2018-11-29T01:27:59.577Z,0.00
2018-11-29T01:28:59.564Z,0.00
2018-11-29T01:29:59.571Z,0.00
2018-11-29T01:30:59.546Z,0.00
2018-11-29T01:31:59.551Z,0.00
2018-11-29T01:32:59.517Z,0.00
2018-11-29T01:33:59.504Z,0.00
2018-11-29T01:34:59.494Z,0.00
2018-11-29T01:35:59.480Z,0.00
2018-11-29T01:36:59.470Z,0.00
2018-11-29T01:37:59.476Z,0.00
2018-11-29T01:38:59.445Z,0.00
2018-11-29T01:39:59.433Z,0.00
2018-11-29T01:40:59.421Z,0.00
2018-11-29T01:41:59.410Z,0.00
2018-11-29T01:42:59.417Z,0.00
2018-11-29T01:43:59.386Z,0.00
2018-11-29T01:44:59.377Z,0.00
2018-11-29T01:45:59.364Z,0.00
2018-11-29T01:46:59.351Z,0.00
2018-11-29T01:47:59.359Z,0.00
2018-11-29T01:48:59.328Z,0.00
2018-11-29T01:49:59.317Z,0.00
2018-11-29T01:50:59.303Z,0.00
2018-11-29T01:51:59.300Z,0.00
2018-11-29T01:52:59.300Z,0.00
2018-11-29T01:53:59.268Z,0.00
2018-11-29T01:54:59.257Z,0.00
2018-11-29T01:55:59.244Z,0.00
2018-11-29T01:56:59.233Z,0.00
2018-11-29T01:57:59.244Z,0.00
2018-11-29T01:58:59.209Z,0.00
2018-11-29T01:59:59.197Z,0.00
2018-11-29T02:00:59.186Z,0.00
2018-11-29T02:01:59.177Z,0.00
2018-11-29T02:02:59.180Z,0.00
2018-11-29T02:03:59.149Z,0.00
2018-11-29T02:04:59.139Z,0.00
2018-11-29T02:05:59.126Z,0.00
2018-11-29T02:06:59.114Z,0.00
2018-11-29T02:07:59.123Z,0.00
2018-11-29T02:08:59.091Z,0.00
2018-11-29T02:09:59.081Z,0.00
2018-11-29T02:10:59.068Z,0.00
2018-11-29T02:11:59.058Z,0.00
2018-11-29T02:12:59.066Z,0.00
2018-11-29T02:13:59.034Z,0.00
2018-11-29T02:14:59.025Z,0.00
2018-11-29T02:15:59.012Z,0.00
2018-11-29T02:16:59.001Z,0.00
2018-11-29T02:17:59.008Z,0.00
2018-11-29T02:18:58.979Z,0.00
2018-11-29T02:19:58.966Z,0.00
2018-11-29T02:20:58.975Z,0.00
2018-11-29T02:21:58.944Z,0.00
2018-11-29T02:22:58.947Z,0.00
2018-11-29T02:23:58.917Z,0.00
2018-11-29T02:24:58.907Z,0.00
2018-11-29T02:25:58.893Z,0.00
2018-11-29T02:26:58.882Z,0.00
2018-11-29T02:27:58.886Z,0.00
2018-11-29T02:28:58.859Z,0.00
2018-11-29T02:29:58.847Z,0.00
2018-11-29T02:30:58.835Z,0.00
2018-11-29T02:31:58.824Z,0.00
2018-11-29T02:32:58.828Z,0.00
2018-11-29T02:33:58.798Z,0.00
2018-11-29T02:34:58.786Z,0.00
2018-11-29T02:35:58.773Z,0.00
2018-11-29T02:36:58.762Z,0.00
2018-11-29T02:37:58.773Z,0.00
2018-11-29T02:38:58.802Z,0.00
2018-11-29T02:39:58.729Z,0.00
2018-11-29T02:40:58.715Z,0.00
2018-11-29T02:41:58.704Z,0.00
2018-11-29T02:42:58.712Z,0.00
2018-11-29T02:43:58.685Z,0.00
2018-11-29T02:44:58.670Z,0.00
2018-11-29T02:45:58.659Z,0.00
2018-11-29T02:46:58.649Z,0.00
2018-11-29T02:47:58.656Z,0.00
2018-11-29T02:48:58.623Z,0.00
2018-11-29T02:49:58.630Z,0.00
2018-11-29T02:50:58.605Z,0.00
2018-11-29T02:51:58.590Z,0.00
2018-11-29T02:52:58.600Z,0.00
2018-11-29T02:53:58.567Z,0.00
2018-11-29T02:54:58.557Z,0.00
2018-11-29T02:55:58.544Z,0.00
2018-11-29T02:56:58.536Z,0.00
2018-11-29T02:57:58.541Z,0.00
2018-11-29T02:59:05.542Z,0.00
2018-11-29T02:59:58.503Z,0.00
2018-11-29T03:00:58.488Z,0.00
2018-11-29T03:01:58.476Z,0.00
2018-11-29T03:02:58.482Z,0.00
2018-11-29T03:03:58.452Z,0.00
2018-11-29T03:04:58.441Z,0.00
2018-11-29T03:05:58.430Z,0.00
2018-11-29T03:06:58.438Z,0.00
2018-11-29T03:07:58.432Z,0.00
2018-11-29T03:08:58.392Z,0.00
2018-11-29T03:09:58.397Z,0.00
2018-11-29T03:10:58.392Z,0.00
2018-11-29T03:11:58.360Z,0.00
2018-11-29T03:12:58.346Z,0.00
2018-11-29T03:13:58.357Z,0.00
2018-11-29T03:14:58.339Z,0.00
2018-11-29T03:15:58.311Z,0.00
2018-11-29T03:16:58.302Z,0.00
2018-11-29T03:17:58.288Z,0.00
2018-11-29T03:18:58.294Z,0.00
2018-11-29T03:19:58.263Z,0.00
2018-11-29T03:20:58.252Z,0.00
2018-11-29T03:21:58.241Z,0.00
2018-11-29T03:22:58.230Z,0.00
2018-11-29T03:23:58.237Z,0.00
2018-11-29T03:24:58.207Z,0.00
2018-11-29T03:25:58.196Z,0.00
2018-11-29T03:26:58.186Z,0.00
2018-11-29T03:27:58.172Z,0.00
2018-11-29T03:28:58.180Z,0.00
2018-11-29T03:29:58.151Z,0.00
2018-11-29T03:30:58.140Z,0.00
2018-11-29T03:31:58.136Z,0.00
2018-11-29T03:32:58.116Z,0.00
2018-11-29T03:33:58.124Z,0.00
2018-11-29T03:34:58.094Z,0.00
2018-11-29T03:35:58.083Z,0.00
2018-11-29T03:36:58.115Z,0.00
2018-11-29T03:37:58.058Z,0.00
2018-11-29T03:38:58.065Z,0.00
2018-11-29T03:39:58.035Z,0.00
2018-11-29T03:40:58.024Z,0.00
2018-11-29T03:41:58.011Z,0.00
2018-11-29T03:42:57.999Z,0.00
2018-11-29T03:43:57.987Z,0.00
2018-11-29T03:44:57.997Z,0.00
2018-11-29T03:45:57.971Z,0.00
2018-11-29T03:46:57.956Z,0.00
2018-11-29T03:47:57.973Z,0.00
2018-11-29T03:48:57.931Z,0.00
2018-11-29T03:49:57.939Z,0.00
2018-11-29T03:50:57.907Z,0.00
2018-11-29T03:51:57.895Z,0.00
2018-11-29T03:52:57.881Z,0.00
2018-11-29T03:53:57.870Z,0.00
2018-11-29T03:54:57.879Z,0.00
2018-11-29T03:55:57.848Z,0.00
2018-11-29T03:56:57.834Z,0.00
2018-11-29T03:57:57.824Z,0.00
2018-11-29T03:58:57.812Z,0.00
2018-11-29T03:59:57.821Z,0.00
2018-11-29T04:00:57.791Z,0.00
2018-11-29T04:01:57.791Z,0.00
2018-11-29T04:02:57.767Z,0.00
2018-11-29T04:03:57.757Z,0.00
2018-11-29T04:04:57.762Z,0.00
2018-11-29T04:05:57.732Z,0.00
2018-11-29T04:06:57.720Z,0.00
2018-11-29T04:07:57.711Z,0.00
2018-11-29T04:08:57.703Z,0.00
2018-11-29T04:09:57.717Z,0.00
2018-11-29T04:10:57.674Z,0.00
2018-11-29T04:11:57.663Z,0.00
2018-11-29T04:12:57.652Z,0.00
2018-11-29T04:13:57.643Z,0.00
2018-11-29T04:14:57.629Z,0.00
2018-11-29T04:15:57.635Z,0.00
2018-11-29T04:16:57.610Z,0.00
2018-11-29T04:17:57.594Z,0.00
2018-11-29T04:18:57.582Z,0.00
2018-11-29T04:19:57.582Z,0.00
2018-11-29T04:20:57.577Z,0.00
2018-11-29T04:21:57.555Z,0.00
2018-11-29T04:22:57.536Z,0.00
2018-11-29T04:23:57.525Z,0.00
2018-11-29T04:24:57.519Z,0.00
2018-11-29T04:25:57.520Z,0.00
2018-11-29T04:26:57.493Z,0.00
2018-11-29T04:27:57.480Z,0.00
2018-11-29T04:28:57.470Z,0.00
2018-11-29T04:29:57.454Z,0.00
2018-11-29T04:30:57.484Z,0.00
2018-11-29T04:31:57.437Z,0.00
2018-11-29T04:32:57.423Z,0.00
2018-11-29T04:33:57.408Z,0.00
2018-11-29T04:34:57.397Z,0.00
2018-11-29T04:35:57.386Z,0.00
2018-11-29T04:36:57.393Z,0.00
2018-11-29T04:37:57.365Z,0.00
2018-11-29T04:38:57.353Z,0.00
2018-11-29T04:39:57.338Z,0.00
2018-11-29T04:40:57.329Z,0.00
2018-11-29T04:41:57.334Z,0.00
2018-11-29T04:42:57.305Z,0.00
2018-11-29T04:43:57.897Z,0.00
2018-11-29T04:44:57.281Z,0.00
2018-11-29T04:45:57.270Z,0.00
2018-11-29T04:46:57.277Z,0.00
2018-11-29T04:47:57.246Z,0.00
2018-11-29T04:48:57.246Z,0.00
2018-11-29T04:49:57.225Z,0.00
2018-11-29T04:50:57.212Z,0.00
2018-11-29T04:51:57.223Z,0.00
2018-11-29T04:52:57.191Z,0.00
2018-11-29T04:53:57.178Z,0.00
2018-11-29T04:54:57.170Z,0.00
2018-11-29T04:55:57.156Z,0.00
2018-11-29T04:56:57.181Z,0.00
2018-11-29T04:57:57.133Z,0.00
2018-11-29T04:58:57.127Z,0.00
2018-11-29T04:59:57.113Z,0.00
2018-11-29T05:00:57.101Z,0.00
2018-11-29T05:01:57.088Z,0.00
2018-11-29T05:02:57.096Z,0.00
2018-11-29T05:03:57.066Z,0.00
2018-11-29T05:04:57.054Z,0.00
2018-11-29T05:05:57.043Z,0.00
2018-11-29T05:06:57.033Z,0.00
2018-11-29T05:07:57.038Z,0.00
2018-11-29T05:08:57.008Z,0.00
2018-11-29T05:09:56.998Z,0.00
2018-11-29T05:10:56.990Z,0.00
2018-11-29T05:11:56.974Z,0.00
2018-11-29T05:12:56.998Z,0.00
2018-11-29T05:13:56.952Z,0.00
2018-11-29T05:14:56.941Z,0.00
2018-11-29T05:15:56.930Z,0.00
2018-11-29T05:16:56.921Z,0.00
2018-11-29T05:17:56.906Z,0.00
2018-11-29T05:18:56.915Z,0.00
2018-11-29T05:19:56.887Z,0.00
2018-11-29T05:20:56.873Z,0.00
2018-11-29T05:21:56.861Z,0.00
2018-11-29T05:22:56.850Z,0.00
2018-11-29T05:23:56.858Z,0.00
2018-11-29T05:24:56.829Z,0.00
2018-11-29T05:25:56.814Z,0.00
2018-11-29T05:26:56.811Z,0.00
2018-11-29T05:27:56.794Z,0.00
2018-11-29T05:28:56.801Z,0.00
2018-11-29T05:29:56.771Z,0.00
2018-11-29T05:30:56.760Z,0.00
2018-11-29T05:31:56.755Z,0.00
2018-11-29T05:32:56.742Z,0.00
2018-11-29T05:33:56.745Z,0.00
2018-11-29T05:34:56.715Z,0.00
2018-11-29T05:35:56.707Z,0.00
2018-11-29T05:36:56.694Z,0.00
2018-11-29T05:37:56.683Z,0.00
2018-11-29T05:38:56.691Z,0.00
2018-11-29T05:39:56.661Z,0.00
2018-11-29T05:40:56.648Z,0.00
2018-11-29T05:41:56.638Z,0.00
2018-11-29T05:42:56.626Z,0.00
2018-11-29T05:43:56.639Z,0.00
2018-11-29T05:44:56.605Z,0.00
2018-11-29T05:45:56.592Z,0.00
2018-11-29T05:46:56.582Z,0.00
2018-11-29T05:47:56.568Z,0.00
2018-11-29T05:48:56.557Z,0.00
2018-11-29T05:49:56.590Z,0.00
2018-11-29T05:50:56.538Z,0.00
2018-11-29T05:51:56.522Z,0.00
2018-11-29T05:52:56.516Z,0.00
2018-11-29T05:53:56.499Z,0.00
2018-11-29T05:54:56.487Z,0.00
2018-11-29T05:55:56.494Z,0.00
2018-11-29T05:56:56.467Z,0.00
2018-11-29T05:57:56.453Z,0.00
2018-11-29T05:58:56.441Z,0.00
2018-11-29T05:59:56.429Z,0.00
2018-11-29T06:00:56.436Z,0.00
2018-11-29T06:01:56.409Z,0.00
2018-11-29T06:02:56.392Z,0.00
2018-11-29T06:03:56.381Z,0.00
2018-11-29T06:04:56.369Z,0.00
2018-11-29T06:05:56.375Z,0.00
2018-11-29T06:06:56.356Z,0.00
2018-11-29T06:07:56.338Z,0.00
2018-11-29T06:08:56.322Z,0.00
2018-11-29T06:09:56.312Z,0.00
2018-11-29T06:10:56.317Z,0.00
2018-11-29T06:11:56.286Z,0.00
2018-11-29T06:12:56.276Z,0.00
2018-11-29T06:13:56.262Z,0.00
2018-11-29T06:14:56.252Z,0.00
2018-11-29T06:15:56.257Z,0.00
2018-11-29T06:16:56.229Z,0.00
2018-11-29T06:17:56.218Z,0.00
2018-11-29T06:18:56.206Z,0.00
2018-11-29T06:19:56.194Z,0.00
2018-11-29T06:20:56.224Z,0.00
2018-11-29T06:21:56.175Z,0.00
2018-11-29T06:22:56.161Z,0.00
2018-11-29T06:23:56.148Z,0.00
2018-11-29T06:24:56.135Z,0.00
2018-11-29T06:25:56.126Z,0.00
2018-11-29T06:26:56.139Z,0.00
2018-11-29T06:27:56.105Z,0.00
2018-11-29T06:28:56.094Z,0.00
2018-11-29T06:29:56.080Z,0.00
2018-11-29T06:30:56.067Z,0.00
2018-11-29T06:31:56.076Z,0.00
2018-11-29T06:32:56.043Z,0.00
2018-11-29T06:33:56.034Z,0.00
2018-11-29T06:34:56.020Z,0.00
2018-11-29T06:35:56.013Z,0.00
2018-11-29T06:36:56.016Z,0.00
2018-11-29T06:37:55.988Z,4.00
2018-11-29T06:38:55.973Z,4.00
2018-11-29T06:39:55.961Z,4.00
2018-11-29T06:40:55.950Z,0.00
2018-11-29T06:41:55.960Z,4.00
2018-11-29T06:42:55.928Z,4.00
2018-11-29T06:43:55.915Z,8.00
2018-11-29T06:44:55.904Z,4.00
2018-11-29T06:45:55.891Z,8.00
2018-11-29T06:46:55.898Z,8.00
2018-11-29T06:47:55.867Z,8.00
2018-11-29T06:48:55.855Z,12.00
2018-11-29T06:49:55.847Z,12.00
2018-11-29T06:50:55.833Z,16.00
2018-11-29T06:51:55.862Z,20.00
2018-11-29T06:52:55.814Z,24.00
2018-11-29T06:53:55.799Z,28.00
2018-11-29T06:54:55.790Z,32.00
2018-11-29T06:55:55.776Z,36.00
2018-11-29T06:56:55.771Z,40.00
2018-11-29T06:57:55.773Z,48.00
2018-11-29T06:58:55.741Z,52.00
2018-11-29T06:59:55.730Z,60.00
2018-11-29T07:00:55.721Z,68.00
2018-11-29T07:01:55.710Z,80.00
2018-11-29T07:02:55.714Z,88.00
2018-11-29T07:03:55.687Z,96.00
2018-11-29T07:04:55.688Z,104.00
2018-11-29T07:05:55.661Z,108.00
2018-11-29T07:06:55.662Z,116.00
2018-11-29T07:07:55.656Z,124.00
2018-11-29T07:08:55.626Z,128.00
2018-11-29T07:09:55.623Z,140.00
2018-11-29T07:10:55.602Z,144.00
2018-11-29T07:11:55.592Z,152.00
2018-11-29T07:12:55.602Z,156.00
2018-11-29T07:13:55.569Z,164.00
2018-11-29T07:14:55.558Z,172.00
2018-11-29T07:15:55.546Z,184.00
2018-11-29T07:16:55.534Z,200.00
2018-11-29T07:17:55.544Z,216.00
2018-11-29T07:18:55.510Z,232.00
2018-11-29T07:19:55.498Z,252.00
2018-11-29T07:20:55.488Z,276.00
2018-11-29T07:21:55.475Z,300.00
2018-11-29T07:22:55.485Z,328.00
2018-11-29T07:23:55.453Z,360.00
2018-11-29T07:24:55.441Z,396.00
2018-11-29T07:25:55.428Z,432.00
2018-11-29T07:26:55.417Z,476.00
2018-11-29T07:27:55.425Z,520.00
2018-11-29T07:28:55.392Z,552.00
2018-11-29T07:29:55.380Z,588.00
2018-11-29T07:30:55.371Z,624.00
2018-11-29T07:31:55.361Z,664.00
2018-11-29T07:32:55.369Z,708.00
2018-11-29T07:33:55.335Z,764.00
2018-11-29T07:34:55.322Z,820.00
2018-11-29T07:35:55.308Z,880.00
2018-11-29T07:36:55.296Z,948.00
2018-11-29T07:37:55.308Z,1024.00
2018-11-29T07:38:55.272Z,1096.00
2018-11-29T07:39:55.304Z,1156.00
2018-11-29T07:40:55.249Z,1212.00
2018-11-29T07:41:55.238Z,1256.00
2018-11-29T07:42:55.229Z,1296.00
2018-11-29T07:43:55.233Z,1336.00
2018-11-29T07:44:55.208Z,1376.00
2018-11-29T07:45:55.192Z,1456.00
2018-11-29T07:46:55.179Z,1552.00
2018-11-29T07:47:55.171Z,1664.00
2018-11-29T07:48:55.173Z,1804.00
2018-11-29T07:49:55.146Z,1956.00
2018-11-29T07:50:55.132Z,2092.00
2018-11-29T07:51:55.122Z,2188.00
2018-11-29T07:52:55.110Z,2256.00
2018-11-29T07:53:55.122Z,2324.00
2018-11-29T07:54:55.087Z,2412.00
2018-11-29T07:55:55.075Z,2532.00
2018-11-29T07:56:55.094Z,2648.00
2018-11-29T07:57:55.050Z,2764.00
2018-11-29T07:58:55.091Z,2880.00
2018-11-29T07:59:55.026Z,2988.00
2018-11-29T08:00:55.018Z,3096.00
2018-11-29T08:01:55.002Z,3172.00
2018-11-29T08:02:54.990Z,3244.00
2018-11-29T08:03:54.998Z,3304.00
2018-11-29T08:04:54.967Z,3312.00
2018-11-29T08:05:54.962Z,3308.00
2018-11-29T08:06:54.943Z,3268.00
2018-11-29T08:07:54.934Z,3180.00
2018-11-29T08:08:54.939Z,3036.00
2018-11-29T08:09:54.918Z,2812.00
2018-11-29T08:10:54.896Z,2588.00
2018-11-29T08:11:54.888Z,2408.00
2018-11-29T08:12:54.877Z,2312.00
2018-11-29T08:13:54.881Z,2268.00
2018-11-29T08:14:54.851Z,2260.00
2018-11-29T08:15:54.840Z,2364.00
2018-11-29T08:16:54.838Z,2564.00
2018-11-29T08:17:54.816Z,2788.00
2018-11-29T08:18:54.834Z,3028.00
2018-11-29T08:19:54.838Z,3276.00
2018-11-29T08:20:54.786Z,3408.00
2018-11-29T08:21:54.771Z,3400.00
2018-11-29T08:22:54.761Z,3232.00
2018-11-29T08:23:54.765Z,3080.00
2018-11-29T08:24:54.761Z,3072.00
2018-11-29T08:25:54.722Z,3156.00
2018-11-29T08:26:54.713Z,3268.00
2018-11-29T08:27:54.699Z,3424.00
2018-11-29T08:28:54.709Z,3604.00
2018-11-29T08:29:54.676Z,3796.00
2018-11-29T08:30:54.666Z,3988.00
2018-11-29T08:31:54.657Z,4120.00
2018-11-29T08:32:54.643Z,4260.00
2018-11-29T08:33:54.638Z,4448.00
2018-11-29T08:34:54.678Z,4772.00
2018-11-29T08:35:54.606Z,5076.00
2018-11-29T08:36:54.599Z,5324.00
2018-11-29T08:37:54.582Z,5472.00
2018-11-29T08:38:54.579Z,5464.00
2018-11-29T08:39:54.580Z,5308.00
2018-11-29T08:40:54.551Z,5248.00
2018-11-29T08:41:54.539Z,5296.00
2018-11-29T08:42:54.525Z,5268.00
2018-11-29T08:43:54.514Z,5256.00
2018-11-29T08:44:54.529Z,5268.00
2018-11-29T08:45:54.489Z,5216.00
2018-11-29T08:46:54.479Z,5100.00
2018-11-29T08:47:54.467Z,4880.00
2018-11-29T08:48:54.456Z,4620.00
2018-11-29T08:49:54.445Z,4276.00
2018-11-29T08:50:54.450Z,4060.00
2018-11-29T08:51:54.422Z,3932.00
2018-11-29T08:52:54.411Z,3808.00
2018-11-29T08:53:54.398Z,3812.00
2018-11-29T08:54:54.387Z,3908.00
2018-11-29T08:55:54.397Z,4084.00
2018-11-29T08:56:54.363Z,4240.00
2018-11-29T08:57:54.351Z,4328.00
2018-11-29T08:58:54.371Z,4416.00
2018-11-29T09:00:01.359Z,4464.00
2018-11-29T09:00:54.334Z,4440.00
2018-11-29T09:01:54.308Z,4404.00
2018-11-29T09:02:54.295Z,4400.00
2018-11-29T09:03:54.280Z,4356.00
2018-11-29T09:04:54.270Z,4212.00
2018-11-29T09:05:54.277Z,4056.00
2018-11-29T09:06:54.247Z,3912.00
2018-11-29T09:07:54.235Z,3876.00
2018-11-29T09:08:54.226Z,3932.00
2018-11-29T09:09:54.213Z,4028.00
2018-11-29T09:10:54.221Z,4000.00
2018-11-29T09:11:54.189Z,3908.00
2018-11-29T09:12:54.182Z,3840.00
2018-11-29T09:13:54.166Z,3872.00
2018-11-29T09:14:54.154Z,4220.00
2018-11-29T09:15:54.167Z,4712.00
2018-11-29T09:16:54.199Z,5032.00
2018-11-29T09:17:54.119Z,5200.00
2018-11-29T09:18:54.107Z,5312.00
2018-11-29T09:19:54.098Z,5516.00
2018-11-29T09:20:54.105Z,5620.00
2018-11-29T09:21:54.072Z,5524.00
2018-11-29T09:22:54.065Z,5428.00
2018-11-29T09:23:54.049Z,5268.00
2018-11-29T09:24:54.042Z,5164.00
2018-11-29T09:25:54.044Z,5092.00
2018-11-29T09:26:54.017Z,5128.00
2018-11-29T09:27:54.003Z,5080.00
2018-11-29T09:28:53.992Z,4916.00
2018-11-29T09:29:53.977Z,4724.00
2018-11-29T09:30:53.984Z,4740.00
2018-11-29T09:31:53.954Z,4856.00
2018-11-29T09:32:53.946Z,4920.00
2018-11-29T09:33:53.931Z,4968.00
2018-11-29T09:34:53.958Z,4916.00
2018-11-29T09:35:53.925Z,4784.00
2018-11-29T09:36:53.895Z,4572.00
2018-11-29T09:37:53.884Z,4344.00
2018-11-29T09:38:53.872Z,4256.00
2018-11-29T09:39:53.860Z,4364.00
2018-11-29T09:40:53.871Z,4472.00
2018-11-29T09:41:53.833Z,4504.00
2018-11-29T09:42:53.823Z,4508.00
2018-11-29T09:43:53.813Z,4496.00
2018-11-29T09:44:53.799Z,4484.00
2018-11-29T09:45:53.796Z,4508.00
2018-11-29T09:46:53.795Z,4544.00
2018-11-29T09:47:53.764Z,4508.00
2018-11-29T09:48:53.751Z,4468.00
2018-11-29T09:49:53.742Z,4352.00
2018-11-29T09:50:53.727Z,4164.00
2018-11-29T09:51:53.738Z,3908.00
2018-11-29T09:52:53.723Z,3732.00
2018-11-29T09:53:53.694Z,3708.00
2018-11-29T09:54:53.681Z,3780.00
2018-11-29T09:55:53.669Z,3908.00
2018-11-29T09:56:53.680Z,4012.00
2018-11-29T09:57:53.654Z,4084.00
2018-11-29T09:58:53.826Z,4156.00
2018-11-29T09:59:53.625Z,4272.00
2018-11-29T10:00:53.614Z,4352.00
2018-11-29T10:01:53.600Z,4556.00
2018-11-29T10:02:53.613Z,4752.00
2018-11-29T10:03:53.578Z,4868.00
2018-11-29T10:04:53.565Z,4912.00
2018-11-29T10:05:53.553Z,4860.00
2018-11-29T10:06:53.542Z,4788.00
2018-11-29T10:07:53.551Z,4752.00
2018-11-29T10:08:53.519Z,4832.00
2018-11-29T10:09:53.507Z,4972.00
2018-11-29T10:10:53.493Z,5152.00
2018-11-29T10:11:53.483Z,5232.00
2018-11-29T10:12:53.490Z,5220.00
2018-11-29T10:13:53.463Z,5156.00
2018-11-29T10:14:53.446Z,5048.00
2018-11-29T10:15:53.436Z,4756.00
2018-11-29T10:16:53.423Z,4484.00
2018-11-29T10:17:53.434Z,4272.00
2018-11-29T10:18:53.402Z,4124.00
2018-11-29T10:19:53.392Z,4192.00
2018-11-29T10:20:53.376Z,4304.00
2018-11-29T10:21:53.368Z,4360.00
2018-11-29T10:22:53.380Z,4432.00
2018-11-29T10:23:53.340Z,4556.00
2018-11-29T10:24:53.329Z,4612.00
2018-11-29T10:25:53.317Z,4676.00
2018-11-29T10:26:53.304Z,4796.00
2018-11-29T10:27:53.312Z,4920.00
2018-11-29T10:28:53.283Z,4872.00
2018-11-29T10:29:53.300Z,4672.00
2018-11-29T10:30:53.255Z,4480.00
2018-11-29T10:31:53.243Z,4540.00
2018-11-29T10:32:53.257Z,4552.00
2018-11-29T10:33:53.222Z,4540.00
2018-11-29T10:34:53.208Z,4572.00
2018-11-29T10:35:59.007Z,4796.00
2018-11-29T10:36:54.184Z,5264.00
2018-11-29T10:37:53.174Z,5668.00
2018-11-29T10:38:53.181Z,6004.00
2018-11-29T10:39:53.151Z,6288.00
2018-11-29T10:40:53.138Z,6580.00
2018-11-29T10:41:53.130Z,6816.00
2018-11-29T10:42:53.116Z,7024.00
2018-11-29T10:43:53.123Z,7176.00
2018-11-29T10:44:53.091Z,7276.00
2018-11-29T10:45:53.158Z,7332.00
2018-11-29T10:46:53.068Z,7332.00
2018-11-29T10:47:53.057Z,7300.00
2018-11-29T10:48:53.064Z,7308.00
2018-11-29T10:49:53.031Z,7420.00
2018-11-29T10:50:53.022Z,7540.00
2018-11-29T10:51:53.008Z,7784.00
2018-11-29T10:52:52.998Z,8016.00
2018-11-29T10:53:53.002Z,8116.00
2018-11-29T10:54:52.971Z,8320.00
2018-11-29T10:55:52.963Z,8464.00
2018-11-29T10:56:52.949Z,8568.00
2018-11-29T10:57:52.937Z,8780.00
2018-11-29T10:58:52.944Z,8828.00
2018-11-29T10:59:52.918Z,8796.00
2018-11-29T11:00:52.909Z,8812.00
2018-11-29T11:01:52.893Z,8752.00
2018-11-29T11:02:52.884Z,8956.00
2018-11-29T11:03:52.889Z,9452.00
2018-11-29T11:04:52.858Z,10024.00
2018-11-29T11:05:52.845Z,10480.00
2018-11-29T11:06:52.841Z,10924.00
2018-11-29T11:07:52.823Z,11228.00
2018-11-29T11:08:52.829Z,11508.00
2018-11-29T11:09:52.799Z,11648.00
2018-11-29T11:10:52.790Z,11720.00
2018-11-29T11:11:52.778Z,11768.00
2018-11-29T11:12:52.765Z,11756.00
2018-11-29T11:13:52.776Z,11840.00
2018-11-29T11:14:52.745Z,11896.00
2018-11-29T11:15:52.731Z,11940.00
2018-11-29T11:16:52.720Z,11996.00
2018-11-29T11:17:52.709Z,12236.00
2018-11-29T11:18:52.697Z,12496.00
2018-11-29T11:19:52.706Z,12992.00
2018-11-29T11:20:52.674Z,13444.00
2018-11-29T11:21:52.663Z,13716.00
2018-11-29T11:22:52.664Z,13900.00
2018-11-29T11:23:59.207Z,13760.00
2018-11-29T11:24:53.645Z,13416.00
2018-11-29T11:25:52.617Z,12804.00
2018-11-29T11:26:52.605Z,12076.00
2018-11-29T11:27:52.596Z,11924.00
2018-11-29T11:28:52.581Z,11940.00
2018-11-29T11:29:52.591Z,11588.00
2018-11-29T11:30:52.559Z,11488.00
2018-11-29T11:31:52.549Z,11380.00
2018-11-29T11:32:52.536Z,11220.00
2018-11-29T11:33:52.524Z,11052.00
2018-11-29T11:34:52.541Z,10968.00
2018-11-29T11:35:52.505Z,10896.00
2018-11-29T11:36:52.490Z,10824.00
2018-11-29T11:37:52.482Z,10704.00
2018-11-29T11:38:52.468Z,10560.00
2018-11-29T11:39:52.476Z,10416.00
2018-11-29T11:40:52.445Z,10340.00
2018-11-29T11:41:52.468Z,10264.00
2018-11-29T11:42:52.420Z,10180.00
2018-11-29T11:43:52.409Z,10032.00
2018-11-29T11:44:52.418Z,9808.00
2018-11-29T11:45:52.388Z,9464.00
2018-11-29T11:46:52.374Z,9072.00
2018-11-29T11:47:52.361Z,8748.00
2018-11-29T11:48:52.357Z,8440.00
2018-11-29T11:49:52.362Z,8148.00
2018-11-29T11:50:52.329Z,7676.00
2018-11-29T11:51:52.316Z,7172.00
2018-11-29T11:52:52.380Z,6776.00
2018-11-29T11:53:52.363Z,6248.00
2018-11-29T11:54:52.281Z,5516.00
2018-11-29T11:55:53.749Z,5124.00
2018-11-29T11:56:52.265Z,4964.00
2018-11-29T11:57:52.273Z,5196.00
2018-11-29T11:58:52.235Z,5316.00
2018-11-29T11:59:52.224Z,5024.00
2018-11-29T12:00:52.231Z,4660.00
2018-11-29T12:01:52.202Z,4416.00
2018-11-29T12:02:52.194Z,4264.00
2018-11-29T12:03:52.180Z,4204.00
2018-11-29T12:04:52.169Z,4092.00
2018-11-29T12:05:52.176Z,3732.00
2018-11-29T12:06:52.152Z,3460.00
2018-11-29T12:07:52.131Z,3696.00
2018-11-29T12:08:52.122Z,3788.00
2018-11-29T12:09:52.111Z,3784.00
2018-11-29T12:10:52.116Z,3816.00
2018-11-29T12:11:52.118Z,3916.00
2018-11-29T12:12:52.075Z,3956.00
2018-11-29T12:13:52.063Z,3960.00
2018-11-29T12:14:52.052Z,3884.00
2018-11-29T12:15:52.060Z,3772.00
2018-11-29T12:16:52.029Z,3616.00
2018-11-29T12:17:52.020Z,3404.00
2018-11-29T12:18:52.007Z,3164.00
2018-11-29T12:19:51.994Z,3020.00
2018-11-29T12:20:52.001Z,2892.00
2018-11-29T12:21:51.971Z,2700.00
2018-11-29T12:22:51.959Z,2472.00
2018-11-29T12:23:51.945Z,2300.00
2018-11-29T12:24:51.935Z,2180.00
2018-11-29T12:25:51.946Z,2124.00
2018-11-29T12:26:51.913Z,2056.00
2018-11-29T12:27:51.899Z,1956.00
2018-11-29T12:28:51.886Z,1832.00
2018-11-29T12:29:51.911Z,1732.00
2018-11-29T12:30:51.865Z,1692.00
2018-11-29T12:31:51.871Z,1696.00
2018-11-29T12:32:51.843Z,1692.00
2018-11-29T12:33:51.830Z,1696.00
2018-11-29T12:34:51.816Z,1728.00
2018-11-29T12:35:51.804Z,1772.00
2018-11-29T12:36:51.815Z,1784.00
2018-11-29T12:37:53.158Z,1816.00
2018-11-29T12:38:51.769Z,1816.00
2018-11-29T12:39:51.755Z,1864.00
2018-11-29T12:40:51.745Z,1940.00
2018-11-29T12:41:51.733Z,1992.00
2018-11-29T12:42:51.740Z,148.00